createdAt,value
2018-08-30T00:01:43.760Z,17.83
2018-08-30T00:06:47.291Z,17.72
2018-08-30T00:11:51.037Z,17.69
2018-08-30T00:16:54.640Z,17.50
2018-08-30T00:21:58.192Z,17.44
2018-08-30T00:27:01.786Z,17.34
2018-08-30T00:32:05.376Z,17.30
2018-08-30T00:37:08.905Z,17.32
2018-08-30T00:42:12.582Z,17.18
2018-08-30T00:47:21.478Z,17.07
2018-08-30T00:52:25.016Z,16.94
2018-08-30T00:57:28.515Z,16.98
2018-08-30T01:02:32.089Z,16.86
2018-08-30T01:07:35.631Z,16.82
2018-08-30T01:12:44.361Z,16.70
2018-08-30T01:17:52.626Z,16.70
2018-08-30T01:22:56.162Z,16.67
2018-08-30T01:27:59.710Z,16.65
2018-08-30T01:33:03.217Z,16.57
2018-08-30T01:38:07.025Z,16.59
2018-08-30T01:43:10.564Z,16.57
2018-08-30T01:48:14.160Z,16.55
2018-08-30T01:53:17.736Z,16.47
2018-08-30T01:58:21.269Z,16.45
2018-08-30T02:03:24.853Z,16.37
2018-08-30T02:08:28.400Z,16.30
2018-08-30T02:13:31.931Z,16.22
2018-08-30T02:18:35.700Z,16.15
2018-08-30T02:23:39.221Z,16.02
2018-08-30T02:28:42.764Z,15.93
2018-08-30T02:33:46.343Z,15.90
2018-08-30T02:38:50.385Z,15.89
2018-08-30T02:43:54.120Z,15.86
2018-08-30T02:48:57.732Z,15.76
2018-08-30T02:54:01.774Z,15.71
2018-08-30T02:59:05.266Z,15.65
2018-08-30T03:04:14.502Z,15.65
2018-08-30T03:09:17.978Z,15.59
2018-08-30T03:14:21.537Z,15.55
2018-08-30T03:19:25.042Z,15.52
2018-08-30T03:24:28.624Z,15.50
2018-08-30T03:29:32.123Z,15.54
2018-08-30T03:34:35.674Z,15.56
2018-08-30T03:39:39.312Z,15.54
2018-08-30T03:44:42.837Z,15.58
2018-08-30T03:49:46.314Z,15.65
2018-08-30T03:54:50.057Z,15.71
2018-08-30T03:59:53.581Z,15.69
2018-08-30T04:04:57.173Z,15.67
2018-08-30T04:10:00.656Z,15.58
2018-08-30T04:15:04.305Z,15.57
2018-08-30T04:20:07.872Z,15.55
2018-08-30T04:25:11.702Z,15.57
2018-08-30T04:30:27.183Z,15.64
2018-08-30T04:35:30.714Z,15.67
2018-08-30T04:40:34.532Z,15.68
2018-08-30T04:45:38.077Z,15.63
2018-08-30T04:50:41.787Z,15.60
2018-08-30T04:55:45.255Z,15.65
2018-08-30T05:00:48.781Z,15.66
2018-08-30T05:05:52.323Z,15.76
2018-08-30T05:10:55.900Z,15.84
2018-08-30T05:15:59.456Z,15.81
2018-08-30T05:21:02.997Z,15.88
2018-08-30T05:26:06.768Z,15.92
2018-08-30T05:31:10.320Z,15.87
2018-08-30T05:36:13.911Z,15.89
2018-08-30T05:41:17.386Z,15.92
2018-08-30T05:46:20.930Z,15.91
2018-08-30T05:51:24.438Z,16.00
2018-08-30T05:56:27.986Z,16.03
2018-08-30T06:01:31.590Z,16.00
2018-08-30T06:06:35.349Z,16.03
2018-08-30T06:11:38.894Z,15.98
2018-08-30T06:16:42.437Z,15.96
2018-08-30T06:21:46.227Z,16.03
2018-08-30T06:26:49.839Z,16.05
2018-08-30T06:31:53.270Z,16.15
2018-08-30T06:36:56.952Z,16.17
2018-08-30T06:42:00.509Z,16.25
2018-08-30T06:47:04.078Z,16.28
2018-08-30T06:52:07.584Z,16.22
2018-08-30T06:57:11.113Z,16.33
2018-08-30T07:02:14.621Z,16.35
2018-08-30T07:07:18.192Z,16.31
2018-08-30T07:12:21.699Z,16.36
2018-08-30T07:17:25.468Z,16.40
2018-08-30T07:22:29.055Z,16.39
2018-08-30T07:27:32.662Z,16.43
2018-08-30T07:32:44.812Z,16.46
2018-08-30T07:37:48.379Z,16.50
2018-08-30T07:42:51.935Z,16.56
2018-08-30T07:47:55.905Z,16.51
2018-08-30T07:52:59.366Z,16.58
2018-08-30T07:58:02.909Z,16.66
2018-08-30T08:03:09.025Z,16.92
2018-08-30T08:08:12.642Z,16.99
2018-08-30T08:13:16.203Z,17.07
2018-08-30T08:18:19.916Z,17.17
2018-08-30T08:23:23.378Z,17.20
2018-08-30T08:28:27.105Z,17.15
2018-08-30T08:33:30.653Z,17.27
2018-08-30T08:38:34.393Z,17.45
2018-08-30T08:43:37.876Z,17.78
2018-08-30T08:48:41.540Z,17.93
2018-08-30T08:53:45.099Z,17.93
2018-08-30T08:58:49.109Z,17.97
2018-08-30T09:03:53.022Z,18.08
2018-08-30T09:08:56.550Z,18.37
2018-08-30T09:14:00.093Z,18.53
2018-08-30T09:19:03.644Z,18.71
2018-08-30T09:24:07.264Z,18.81
2018-08-30T09:29:10.827Z,18.82
2018-08-30T09:34:14.458Z,18.78
2018-08-30T09:39:18.013Z,18.61
2018-08-30T09:44:21.532Z,18.77
2018-08-30T09:49:25.250Z,18.73
2018-08-30T09:54:29.257Z,18.90
2018-08-30T09:59:32.811Z,18.83
2018-08-30T10:04:36.347Z,19.49
2018-08-30T10:09:39.889Z,19.79
2018-08-30T10:14:43.437Z,20.11
2018-08-30T10:19:46.998Z,19.66
2018-08-30T10:24:50.593Z,19.41
2018-08-30T10:29:54.133Z,19.84
2018-08-30T10:34:57.706Z,20.25
2018-08-30T10:40:01.244Z,19.73
2018-08-30T10:45:05.300Z,19.72
2018-08-30T10:50:08.856Z,19.73
2018-08-30T10:55:12.407Z,19.66
2018-08-30T11:00:32.370Z,19.88
2018-08-30T11:05:36.178Z,20.12
2018-08-30T11:10:39.686Z,19.79
2018-08-30T11:15:43.229Z,20.06
2018-08-30T11:20:46.926Z,20.26
2018-08-30T11:25:50.478Z,20.46
2018-08-30T11:30:54.031Z,20.50
2018-08-30T11:35:57.519Z,20.53
2018-08-30T11:41:11.747Z,20.96
2018-08-30T11:46:15.278Z,20.93
2018-08-30T11:51:18.815Z,20.86
2018-08-30T11:56:22.373Z,21.09
2018-08-30T12:01:26.165Z,21.45
2018-08-30T12:06:29.879Z,21.20
2018-08-30T12:11:34.069Z,21.54
2018-08-30T12:16:37.501Z,21.69
2018-08-30T12:21:41.149Z,21.33
2018-08-30T12:26:44.714Z,21.52
2018-08-30T12:31:48.422Z,21.82
2018-08-30T12:36:52.053Z,21.68
2018-08-30T12:41:55.767Z,21.61
2018-08-30T12:46:59.361Z,21.60
2018-08-30T12:52:02.954Z,21.32
2018-08-30T12:57:06.654Z,21.04
2018-08-30T13:02:10.593Z,21.04
2018-08-30T13:07:14.269Z,21.03
2018-08-30T13:12:18.061Z,21.13
2018-08-30T13:17:21.551Z,21.16
2018-08-30T13:22:25.408Z,21.28
2018-08-30T13:27:28.926Z,21.10
2018-08-30T13:32:32.739Z,21.09
2018-08-30T13:37:36.039Z,21.00
2018-08-30T13:42:39.486Z,20.67
2018-08-30T13:47:43.126Z,20.58
2018-08-30T13:52:47.277Z,20.09
2018-08-30T13:57:50.863Z,19.78
2018-08-30T14:02:54.408Z,19.65
2018-08-30T14:07:57.982Z,20.15
2018-08-30T14:13:01.568Z,20.60
2018-08-30T14:18:05.109Z,21.11
2018-08-30T14:23:08.606Z,20.89
2018-08-30T14:28:12.482Z,20.61
2018-08-30T14:33:16.238Z,20.26
2018-08-30T14:38:19.854Z,20.20
2018-08-30T14:43:23.405Z,20.12
2018-08-30T14:48:28.673Z,19.86
2018-08-30T14:53:33.877Z,19.77
2018-08-30T14:58:41.140Z,19.83
2018-08-30T15:03:44.631Z,19.92
2018-08-30T15:08:48.153Z,19.90
2018-08-30T15:13:52.191Z,19.74
2018-08-30T15:18:55.727Z,19.41
2018-08-30T15:23:59.202Z,19.22
2018-08-30T15:29:02.775Z,19.05
2018-08-30T15:34:06.435Z,18.82
2018-08-30T15:39:10.765Z,18.77
2018-08-30T15:44:14.631Z,18.69
2018-08-30T15:49:18.229Z,18.44
2018-08-30T15:54:21.777Z,18.13
2018-08-30T15:59:25.456Z,18.07
2018-08-30T16:04:28.809Z,17.89
2018-08-30T16:09:32.440Z,17.75
2018-08-30T16:14:35.949Z,17.50
2018-08-30T16:19:39.485Z,17.42
2018-08-30T16:24:43.036Z,17.31
2018-08-30T16:29:46.541Z,17.12
2018-08-30T16:34:50.235Z,17.11
2018-08-30T16:39:53.893Z,17.16
2018-08-30T16:44:57.321Z,17.20
2018-08-30T16:50:00.901Z,17.18
2018-08-30T16:55:04.436Z,17.32
2018-08-30T17:00:09.004Z,17.25
2018-08-30T17:05:12.577Z,17.26
2018-08-30T17:10:16.280Z,17.17
2018-08-30T17:15:20.046Z,17.19
2018-08-30T17:20:43.222Z,17.19
2018-08-30T17:25:46.773Z,17.25
2018-08-30T17:30:50.302Z,17.31
2018-08-30T17:35:53.798Z,17.31
2018-08-30T17:40:57.348Z,17.31
2018-08-30T17:46:00.917Z,17.29
2018-08-30T17:51:04.514Z,17.16
2018-08-30T17:56:08.274Z,17.10
2018-08-30T18:01:12.075Z,17.04
2018-08-30T18:06:15.937Z,16.92
2018-08-30T18:11:19.475Z,16.89
2018-08-30T18:16:23.076Z,16.80
2018-08-30T18:21:26.798Z,16.62
2018-08-30T18:26:30.323Z,16.53
2018-08-30T18:31:33.911Z,16.47
2018-08-30T18:36:37.665Z,16.38
2018-08-30T18:41:41.942Z,16.32
2018-08-30T18:46:46.577Z,16.22
2018-08-30T18:51:50.165Z,16.17
2018-08-30T18:56:53.672Z,16.17
2018-08-30T19:01:57.622Z,16.22
2018-08-30T19:07:01.348Z,16.28
2018-08-30T19:12:05.058Z,16.32
2018-08-30T19:17:14.247Z,16.35
2018-08-30T19:22:17.806Z,16.35
2018-08-30T19:27:21.393Z,16.26
2018-08-30T19:32:25.382Z,16.13
2018-08-30T19:37:29.230Z,16.04
2018-08-30T19:42:33.952Z,15.97
2018-08-30T19:47:38.475Z,15.99
2018-08-30T19:52:42.131Z,15.97
2018-08-30T19:57:46.855Z,15.99
2018-08-30T20:02:50.642Z,15.96
2018-08-30T20:07:54.334Z,16.08
2018-08-30T20:12:59.015Z,15.98
2018-08-30T20:18:03.744Z,16.02
2018-08-30T20:23:08.263Z,16.02
2018-08-30T20:28:12.256Z,16.03
2018-08-30T20:33:16.278Z,16.03
2018-08-30T20:38:20.610Z,15.97
2018-08-30T20:43:26.535Z,15.93
2018-08-30T20:48:30.537Z,15.97
2018-08-30T20:53:35.394Z,15.93
2018-08-30T20:58:39.249Z,15.96
2018-08-30T21:03:43.064Z,15.88
2018-08-30T21:08:46.684Z,15.65
2018-08-30T21:13:50.654Z,15.53
2018-08-30T21:18:54.466Z,15.59
2018-08-30T21:23:58.567Z,15.60
2018-08-30T21:29:02.157Z,15.52
2018-08-30T21:34:05.725Z,15.38
2018-08-30T21:39:09.937Z,15.20
2018-08-30T21:44:13.757Z,15.13
2018-08-30T21:49:17.312Z,15.17
2018-08-30T21:54:22.138Z,15.17
2018-08-30T21:59:25.677Z,15.05
2018-08-30T22:04:29.373Z,15.06
2018-08-30T22:09:32.904Z,15.02
2018-08-30T22:14:37.161Z,15.17
2018-08-30T22:19:40.703Z,15.07
2018-08-30T22:24:44.149Z,15.00
2018-08-30T22:29:47.860Z,14.80
2018-08-30T22:34:51.402Z,14.76
2018-08-30T22:39:55.189Z,14.74
2018-08-30T22:44:58.629Z,14.76
2018-08-30T22:50:02.202Z,14.73
2018-08-30T22:55:05.735Z,14.73
2018-08-30T23:00:10.858Z,14.64
2018-08-30T23:05:14.705Z,14.44
2018-08-30T23:10:18.736Z,14.36
2018-08-30T23:15:22.305Z,14.21
2018-08-30T23:20:25.887Z,14.03
2018-08-30T23:25:29.604Z,13.86
2018-08-30T23:30:33.173Z,13.77
2018-08-30T23:35:36.639Z,13.72
2018-08-30T23:40:40.145Z,13.65
2018-08-30T23:45:43.689Z,13.51
2018-08-30T23:50:47.213Z,13.42
2018-08-30T23:55:50.733Z,13.37
